sensor_id;sensor_type;location;lat;lon;timestamp;pressure;altitude;pressure_sealevel;temperature;humidity
48862;BME280;34681;49.188;-0.374;2023-03-03T00:01:24;102185.19;;;6.14;72.89
48862;BME280;34681;49.188;-0.374;2023-03-03T00:03:50;102183.00;;;6.05;72.55
48862;BME280;34681;49.188;-0.374;2023-03-03T00:06:16;102187.50;;;5.87;73.32
48862;BME280;34681;49.188;-0.374;2023-03-03T00:08:41;102187.28;;;5.75;73.77
48862;BME280;34681;49.188;-0.374;2023-03-03T00:11:07;102191.44;;;5.82;73.60
48862;BME280;34681;49.188;-0.374;2023-03-03T00:13:43;102186.31;;;5.76;73.96
48862;BME280;34681;49.188;-0.374;2023-03-03T00:18:48;102179.78;;;5.80;74.34
48862;BME280;34681;49.188;-0.374;2023-03-03T00:23:47;102184.75;;;5.72;74.11
48862;BME280;34681;49.188;-0.374;2023-03-03T00:26:20;102187.53;;;5.70;74.28
48862;BME280;34681;49.188;-0.374;2023-03-03T00:28:51;102192.03;;;5.71;74.47
48862;BME280;34681;49.188;-0.374;2023-03-03T00:31:21;102197.03;;;5.61;74.66
48862;BME280;34681;49.188;-0.374;2023-03-03T00:33:51;102192.16;;;5.68;74.45
48862;BME280;34681;49.188;-0.374;2023-03-03T00:36:38;102192.25;;;5.67;74.29
48862;BME280;34681;49.188;-0.374;2023-03-03T00:39:37;102193.78;;;5.72;74.14
48862;BME280;34681;49.188;-0.374;2023-03-03T00:42:16;102193.03;;;5.51;75.06
48862;BME280;34681;49.188;-0.374;2023-03-03T00:47:24;102197.28;;;5.40;75.59
48862;BME280;34681;49.188;-0.374;2023-03-03T00:49:54;102204.84;;;5.33;76.00
48862;BME280;34681;49.188;-0.374;2023-03-03T00:52:20;102192.38;;;5.29;76.19
48862;BME280;34681;49.188;-0.374;2023-03-03T00:54:47;102199.50;;;5.49;75.42
48862;BME280;34681;49.188;-0.374;2023-03-03T00:57:12;102204.06;;;5.31;76.01
48862;BME280;34681;49.188;-0.374;2023-03-03T00:59:39;102204.34;;;5.25;76.40
48862;BME280;34681;49.188;-0.374;2023-03-03T01:02:05;102197.16;;;5.24;76.61
48862;BME280;34681;49.188;-0.374;2023-03-03T01:04:30;102196.28;;;5.23;76.71
48862;BME280;34681;49.188;-0.374;2023-03-03T01:06:56;102195.75;;;5.34;76.54
48862;BME280;34681;49.188;-0.374;2023-03-03T01:09:22;102192.84;;;5.37;76.78
48862;BME280;34681;49.188;-0.374;2023-03-03T01:11:48;102187.38;;;5.39;76.59
48862;BME280;34681;49.188;-0.374;2023-03-03T01:14:14;102188.00;;;5.44;76.16
48862;BME280;34681;49.188;-0.374;2023-03-03T01:16:39;102194.88;;;5.33;76.65
48862;BME280;34681;49.188;-0.374;2023-03-03T01:19:06;102189.94;;;5.42;76.46
48862;BME280;34681;49.188;-0.374;2023-03-03T01:21:31;102192.72;;;5.40;76.19
48862;BME280;34681;49.188;-0.374;2023-03-03T01:23:57;102197.50;;;5.35;76.76
48862;BME280;34681;49.188;-0.374;2023-03-03T01:26:22;102191.34;;;5.31;76.74
48862;BME280;34681;49.188;-0.374;2023-03-03T01:28:47;102191.28;;;5.33;76.92
48862;BME280;34681;49.188;-0.374;2023-03-03T01:31:13;102187.44;;;5.37;76.76
48862;BME280;34681;49.188;-0.374;2023-03-03T01:33:38;102180.25;;;5.36;76.61
48862;BME280;34681;49.188;-0.374;2023-03-03T01:36:04;102178.66;;;5.32;76.81
48862;BME280;34681;49.188;-0.374;2023-03-03T01:38:30;102174.81;;;5.53;76.22
48862;BME280;34681;49.188;-0.374;2023-03-03T01:40:57;102171.41;;;5.50;76.01
48862;BME280;34681;49.188;-0.374;2023-03-03T01:43:27;102179.72;;;5.47;76.37
48862;BME280;34681;49.188;-0.374;2023-03-03T01:48:29;102168.69;;;5.50;76.53
48862;BME280;34681;49.188;-0.374;2023-03-03T01:51:02;102173.72;;;5.57;76.03
48862;BME280;34681;49.188;-0.374;2023-03-03T01:53:43;102168.59;;;5.51;75.99
48862;BME280;34681;49.188;-0.374;2023-03-03T01:56:09;102160.63;;;5.31;76.89
48862;BME280;34681;49.188;-0.374;2023-03-03T01:58:54;102164.03;;;5.17;77.31
48862;BME280;34681;49.188;-0.374;2023-03-03T02:01:25;102157.81;;;5.15;77.57
48862;BME280;34681;49.188;-0.374;2023-03-03T02:03:51;102163.56;;;5.26;77.40
48862;BME280;34681;49.188;-0.374;2023-03-03T02:06:21;102160.44;;;5.17;77.41
48862;BME280;34681;49.188;-0.374;2023-03-03T02:08:53;102154.34;;;5.12;77.54
48862;BME280;34681;49.188;-0.374;2023-03-03T02:11:23;102160.16;;;5.04;78.10
48862;BME280;34681;49.188;-0.374;2023-03-03T02:13:49;102157.44;;;5.04;78.34
48862;BME280;34681;49.188;-0.374;2023-03-03T02:16:15;102160.53;;;5.15;77.56
48862;BME280;34681;49.188;-0.374;2023-03-03T02:18:40;102166.16;;;5.11;77.58
48862;BME280;34681;49.188;-0.374;2023-03-03T02:21:10;102165.53;;;5.05;78.25
48862;BME280;34681;49.188;-0.374;2023-03-03T02:26:25;102150.38;;;5.19;77.69
48862;BME280;34681;49.188;-0.374;2023-03-03T02:28:51;102151.72;;;5.10;77.78
48862;BME280;34681;49.188;-0.374;2023-03-03T02:31:20;102152.13;;;5.20;77.50
48862;BME280;34681;49.188;-0.374;2023-03-03T02:33:48;102155.63;;;5.04;78.11
48862;BME280;34681;49.188;-0.374;2023-03-03T02:36:21;102142.88;;;5.06;78.77
48862;BME280;34681;49.188;-0.374;2023-03-03T02:39:08;102148.78;;;5.15;77.98
48862;BME280;34681;49.188;-0.374;2023-03-03T02:44:28;102141.03;;;5.07;78.27
48862;BME280;34681;49.188;-0.374;2023-03-03T02:46:55;102144.75;;;5.04;78.24
48862;BME280;34681;49.188;-0.374;2023-03-03T02:49:26;102154.69;;;5.05;78.16
48862;BME280;34681;49.188;-0.374;2023-03-03T02:51:53;102151.69;;;4.93;78.76
48862;BME280;34681;49.188;-0.374;2023-03-03T02:54:20;102158.06;;;4.92;78.79
48862;BME280;34681;49.188;-0.374;2023-03-03T02:56:46;102162.38;;;4.96;78.95
48862;BME280;34681;49.188;-0.374;2023-03-03T02:59:12;102157.63;;;5.01;78.85
48862;BME280;34681;49.188;-0.374;2023-03-03T03:01:38;102154.31;;;4.94;78.74
48862;BME280;34681;49.188;-0.374;2023-03-03T03:04:09;102152.56;;;4.93;79.06
48862;BME280;34681;49.188;-0.374;2023-03-03T03:06:36;102161.00;;;4.87;79.39
48862;BME280;34681;49.188;-0.374;2023-03-03T03:09:02;102151.34;;;4.82;79.59
48862;BME280;34681;49.188;-0.374;2023-03-03T03:11:28;102157.28;;;4.90;79.37
48862;BME280;34681;49.188;-0.374;2023-03-03T03:13:53;102152.84;;;5.06;79.04
48862;BME280;34681;49.188;-0.374;2023-03-03T03:16:19;102155.53;;;4.89;79.50
48862;BME280;34681;49.188;-0.374;2023-03-03T03:18:44;102156.69;;;4.83;80.02
48862;BME280;34681;49.188;-0.374;2023-03-03T03:21:11;102154.94;;;4.82;80.21
48862;BME280;34681;49.188;-0.374;2023-03-03T03:23:37;102157.00;;;4.77;80.30
48862;BME280;34681;49.188;-0.374;2023-03-03T03:26:04;102156.69;;;4.83;80.10
48862;BME280;34681;49.188;-0.374;2023-03-03T03:28:29;102152.66;;;4.92;79.84
48862;BME280;34681;49.188;-0.374;2023-03-03T03:30:55;102154.25;;;4.96;79.92
48862;BME280;34681;49.188;-0.374;2023-03-03T03:33:20;102161.28;;;5.00;79.86
48862;BME280;34681;49.188;-0.374;2023-03-03T03:35:46;102159.75;;;4.94;80.32
48862;BME280;34681;49.188;-0.374;2023-03-03T03:38:13;102153.63;;;4.91;80.54
48862;BME280;34681;49.188;-0.374;2023-03-03T03:40:38;102154.41;;;4.93;80.45
48862;BME280;34681;49.188;-0.374;2023-03-03T03:43:04;102159.06;;;5.08;80.29
48862;BME280;34681;49.188;-0.374;2023-03-03T03:45:29;102156.06;;;5.14;79.47
48862;BME280;34681;49.188;-0.374;2023-03-03T03:47:55;102151.50;;;5.15;79.29
48862;BME280;34681;49.188;-0.374;2023-03-03T03:50:20;102148.94;;;5.12;79.45
48862;BME280;34681;49.188;-0.374;2023-03-03T03:52:45;102159.16;;;5.06;80.00
48862;BME280;34681;49.188;-0.374;2023-03-03T03:55:11;102166.03;;;5.14;79.57
48862;BME280;34681;49.188;-0.374;2023-03-03T03:57:36;102162.03;;;5.21;79.63
48862;BME280;34681;49.188;-0.374;2023-03-03T04:00:04;102161.00;;;5.06;80.50
48862;BME280;34681;49.188;-0.374;2023-03-03T04:02:29;102167.50;;;5.02;80.69
48862;BME280;34681;49.188;-0.374;2023-03-03T04:04:54;102163.38;;;5.12;80.59
48862;BME280;34681;49.188;-0.374;2023-03-03T04:07:20;102163.38;;;5.29;79.93
48862;BME280;34681;49.188;-0.374;2023-03-03T04:09:45;102168.91;;;5.28;79.66
48862;BME280;34681;49.188;-0.374;2023-03-03T04:12:11;102172.34;;;5.31;80.03
48862;BME280;34681;49.188;-0.374;2023-03-03T04:14:36;102166.53;;;5.22;80.69
48862;BME280;34681;49.188;-0.374;2023-03-03T04:17:02;102164.22;;;5.31;80.49
48862;BME280;34681;49.188;-0.374;2023-03-03T04:19:27;102155.72;;;5.38;79.94
48862;BME280;34681;49.188;-0.374;2023-03-03T04:21:53;102162.38;;;5.32;80.25
48862;BME280;34681;49.188;-0.374;2023-03-03T04:24:18;102169.47;;;5.34;80.16
48862;BME280;34681;49.188;-0.374;2023-03-03T04:26:44;102167.03;;;5.47;79.33
48862;BME280;34681;49.188;-0.374;2023-03-03T04:29:09;102171.09;;;5.39;79.93
48862;BME280;34681;49.188;-0.374;2023-03-03T04:31:34;102165.56;;;5.40;80.52
48862;BME280;34681;49.188;-0.374;2023-03-03T04:34:00;102170.69;;;5.46;79.69
48862;BME280;34681;49.188;-0.374;2023-03-03T04:36:25;102172.03;;;5.38;79.88
48862;BME280;34681;49.188;-0.374;2023-03-03T04:38:50;102174.59;;;5.41;79.51
48862;BME280;34681;49.188;-0.374;2023-03-03T04:41:16;102173.31;;;5.30;80.39
48862;BME280;34681;49.188;-0.374;2023-03-03T04:43:42;102165.19;;;5.30;80.31
48862;BME280;34681;49.188;-0.374;2023-03-03T04:46:07;102170.59;;;5.30;80.28
48862;BME280;34681;49.188;-0.374;2023-03-03T04:48:33;102168.22;;;5.42;79.97
48862;BME280;34681;49.188;-0.374;2023-03-03T04:50:58;102169.97;;;5.43;79.68
48862;BME280;34681;49.188;-0.374;2023-03-03T04:53:24;102163.81;;;5.39;79.72
48862;BME280;34681;49.188;-0.374;2023-03-03T04:55:52;102176.25;;;5.43;79.77
48862;BME280;34681;49.188;-0.374;2023-03-03T04:58:19;102172.06;;;5.55;79.06
48862;BME280;34681;49.188;-0.374;2023-03-03T05:00:53;102168.13;;;5.60;79.40
48862;BME280;34681;49.188;-0.374;2023-03-03T05:03:19;102175.47;;;5.41;79.86
48862;BME280;34681;49.188;-0.374;2023-03-03T05:05:46;102174.44;;;5.44;79.65
48862;BME280;34681;49.188;-0.374;2023-03-03T05:08:11;102176.91;;;5.48;79.28
48862;BME280;34681;49.188;-0.374;2023-03-03T05:10:37;102173.94;;;5.35;79.55
48862;BME280;34681;49.188;-0.374;2023-03-03T05:13:02;102173.81;;;5.56;79.07
48862;BME280;34681;49.188;-0.374;2023-03-03T05:15:29;102169.66;;;5.66;78.75
48862;BME280;34681;49.188;-0.374;2023-03-03T05:17:54;102184.81;;;5.70;78.12
48862;BME280;34681;49.188;-0.374;2023-03-03T05:20:21;102169.81;;;5.80;77.85
48862;BME280;34681;49.188;-0.374;2023-03-03T05:22:46;102181.78;;;5.76;77.55
48862;BME280;34681;49.188;-0.374;2023-03-03T05:25:12;102188.56;;;5.85;77.70
48862;BME280;34681;49.188;-0.374;2023-03-03T05:27:37;102185.94;;;5.83;76.86
48862;BME280;34681;49.188;-0.374;2023-03-03T05:30:03;102187.13;;;5.78;77.23
48862;BME280;34681;49.188;-0.374;2023-03-03T05:32:29;102192.63;;;5.76;76.81
48862;BME280;34681;49.188;-0.374;2023-03-03T05:34:54;102189.22;;;5.73;76.92
48862;BME280;34681;49.188;-0.374;2023-03-03T05:37:20;102192.34;;;5.65;76.91
48862;BME280;34681;49.188;-0.374;2023-03-03T05:39:45;102191.38;;;5.66;76.95
48862;BME280;34681;49.188;-0.374;2023-03-03T05:42:11;102196.00;;;5.81;76.64
48862;BME280;34681;49.188;-0.374;2023-03-03T05:44:37;102192.72;;;5.75;76.54
48862;BME280;34681;49.188;-0.374;2023-03-03T05:47:03;102192.66;;;5.94;76.11
48862;BME280;34681;49.188;-0.374;2023-03-03T05:49:28;102193.19;;;5.83;75.93
48862;BME280;34681;49.188;-0.374;2023-03-03T05:51:53;102201.09;;;5.87;76.61
48862;BME280;34681;49.188;-0.374;2023-03-03T05:54:19;102203.19;;;6.00;75.69
48862;BME280;34681;49.188;-0.374;2023-03-03T05:56:44;102195.38;;;5.94;75.56
48862;BME280;34681;49.188;-0.374;2023-03-03T05:59:09;102206.09;;;5.79;75.92
48862;BME280;34681;49.188;-0.374;2023-03-03T06:01:35;102208.84;;;5.78;76.25
48862;BME280;34681;49.188;-0.374;2023-03-03T06:04:00;102206.53;;;5.87;76.22
48862;BME280;34681;49.188;-0.374;2023-03-03T06:06:25;102205.44;;;5.91;76.24
48862;BME280;34681;49.188;-0.374;2023-03-03T06:08:52;102212.78;;;5.89;76.39
48862;BME280;34681;49.188;-0.374;2023-03-03T06:11:18;102201.59;;;5.96;75.97
48862;BME280;34681;49.188;-0.374;2023-03-03T06:13:43;102212.28;;;6.16;75.61
48862;BME280;34681;49.188;-0.374;2023-03-03T06:16:08;102211.59;;;5.95;75.92
48862;BME280;34681;49.188;-0.374;2023-03-03T06:18:34;102216.59;;;5.85;76.32
48862;BME280;34681;49.188;-0.374;2023-03-03T06:20:59;102209.44;;;6.02;76.27
48862;BME280;34681;49.188;-0.374;2023-03-03T06:23:25;102216.00;;;5.98;75.91
48862;BME280;34681;49.188;-0.374;2023-03-03T06:25:50;102224.38;;;5.93;76.06
48862;BME280;34681;49.188;-0.374;2023-03-03T06:28:15;102223.50;;;5.93;76.07
48862;BME280;34681;49.188;-0.374;2023-03-03T06:30:41;102222.53;;;6.11;75.36
48862;BME280;34681;49.188;-0.374;2023-03-03T06:33:06;102225.19;;;6.12;75.54
48862;BME280;34681;49.188;-0.374;2023-03-03T06:35:32;102215.28;;;6.27;74.87
48862;BME280;34681;49.188;-0.374;2023-03-03T06:37:57;102223.84;;;6.53;74.14
48862;BME280;34681;49.188;-0.374;2023-03-03T06:40:22;102225.16;;;6.30;74.54
48862;BME280;34681;49.188;-0.374;2023-03-03T06:42:48;102231.59;;;6.27;74.44
48862;BME280;34681;49.188;-0.374;2023-03-03T06:45:13;102233.78;;;6.20;74.40
48862;BME280;34681;49.188;-0.374;2023-03-03T06:47:39;102228.22;;;6.06;75.02
48862;BME280;34681;49.188;-0.374;2023-03-03T06:50:06;102237.06;;;6.10;74.67
48862;BME280;34681;49.188;-0.374;2023-03-03T06:52:32;102239.56;;;6.14;74.25
48862;BME280;34681;49.188;-0.374;2023-03-03T06:54:59;102240.06;;;6.05;74.72
48862;BME280;34681;49.188;-0.374;2023-03-03T06:57:31;102246.38;;;6.06;74.61
48862;BME280;34681;49.188;-0.374;2023-03-03T07:00:09;102245.00;;;6.14;74.40
48862;BME280;34681;49.188;-0.374;2023-03-03T07:02:38;102240.81;;;6.25;73.85
48862;BME280;34681;49.188;-0.374;2023-03-03T07:05:08;102237.22;;;6.24;73.28
48862;BME280;34681;49.188;-0.374;2023-03-03T07:07:34;102251.13;;;6.18;73.53
48862;BME280;34681;49.188;-0.374;2023-03-03T07:10:00;102256.56;;;6.18;73.50
48862;BME280;34681;49.188;-0.374;2023-03-03T07:12:28;102250.25;;;6.17;73.59
48862;BME280;34681;49.188;-0.374;2023-03-03T07:17:24;102261.28;;;6.32;73.11
48862;BME280;34681;49.188;-0.374;2023-03-03T07:19:49;102265.44;;;6.39;72.49
48862;BME280;34681;49.188;-0.374;2023-03-03T07:22:17;102263.25;;;6.45;72.25
48862;BME280;34681;49.188;-0.374;2023-03-03T07:24:51;102258.38;;;6.68;71.34
48862;BME280;34681;49.188;-0.374;2023-03-03T07:27:25;102260.41;;;6.64;70.94
48862;BME280;34681;49.188;-0.374;2023-03-03T07:29:52;102275.81;;;6.48;71.15
48862;BME280;34681;49.188;-0.374;2023-03-03T07:32:27;102276.31;;;6.39;71.20
48862;BME280;34681;49.188;-0.374;2023-03-03T07:34:58;102286.72;;;6.64;70.71
48862;BME280;34681;49.188;-0.374;2023-03-03T07:37:37;102289.91;;;6.72;70.12
48862;BME280;34681;49.188;-0.374;2023-03-03T07:40:25;102279.56;;;6.79;69.96
48862;BME280;34681;49.188;-0.374;2023-03-03T07:42:53;102280.91;;;6.87;69.77
48862;BME280;34681;49.188;-0.374;2023-03-03T07:45:26;102287.50;;;7.15;69.09
48862;BME280;34681;49.188;-0.374;2023-03-03T07:47:56;102300.06;;;7.33;68.40
48862;BME280;34681;49.188;-0.374;2023-03-03T07:50:24;102294.44;;;7.20;68.74
48862;BME280;34681;49.188;-0.374;2023-03-03T07:52:58;102301.34;;;7.57;67.61
48862;BME280;34681;49.188;-0.374;2023-03-03T07:55:34;102302.34;;;7.41;68.04
48862;BME280;34681;49.188;-0.374;2023-03-03T07:58:28;102302.69;;;7.35;68.07
48862;BME280;34681;49.188;-0.374;2023-03-03T08:04:23;102301.81;;;7.34;68.34
48862;BME280;34681;49.188;-0.374;2023-03-03T08:06:59;102303.22;;;7.25;68.55
48862;BME280;34681;49.188;-0.374;2023-03-03T08:09:35;102307.88;;;7.39;68.77
48862;BME280;34681;49.188;-0.374;2023-03-03T08:14:35;102315.16;;;7.23;68.94
48862;BME280;34681;49.188;-0.374;2023-03-03T08:17:01;102306.66;;;7.29;69.06
48862;BME280;34681;49.188;-0.374;2023-03-03T08:19:32;102312.78;;;7.64;68.21
48862;BME280;34681;49.188;-0.374;2023-03-03T08:22:01;102322.59;;;7.67;67.75
48862;BME280;34681;49.188;-0.374;2023-03-03T08:24:33;102315.66;;;7.61;67.88
48862;BME280;34681;49.188;-0.374;2023-03-03T08:26:58;102314.84;;;7.75;67.49
48862;BME280;34681;49.188;-0.374;2023-03-03T08:29:24;102327.63;;;7.58;68.12
48862;BME280;34681;49.188;-0.374;2023-03-03T08:31:49;102333.59;;;7.49;68.41
48862;BME280;34681;49.188;-0.374;2023-03-03T08:34:14;102330.00;;;7.49;68.40
48862;BME280;34681;49.188;-0.374;2023-03-03T08:36:39;102323.06;;;7.43;68.63
48862;BME280;34681;49.188;-0.374;2023-03-03T08:39:05;102325.78;;;7.43;68.25
48862;BME280;34681;49.188;-0.374;2023-03-03T08:41:31;102331.94;;;7.47;68.23
48862;BME280;34681;49.188;-0.374;2023-03-03T08:43:56;102336.22;;;7.35;67.87
48862;BME280;34681;49.188;-0.374;2023-03-03T08:46:21;102343.81;;;7.30;67.95
48862;BME280;34681;49.188;-0.374;2023-03-03T08:48:47;102338.88;;;7.21;68.17
48862;BME280;34681;49.188;-0.374;2023-03-03T08:51:13;102357.41;;;7.30;68.29
48862;BME280;34681;49.188;-0.374;2023-03-03T08:53:39;102349.06;;;7.33;68.03
48862;BME280;34681;49.188;-0.374;2023-03-03T08:56:04;102366.38;;;7.32;67.82
48862;BME280;34681;49.188;-0.374;2023-03-03T08:58:31;102353.59;;;7.01;68.03
48862;BME280;34681;49.188;-0.374;2023-03-03T09:00:57;102355.69;;;6.96;68.37
48862;BME280;34681;49.188;-0.374;2023-03-03T09:03:23;102359.66;;;7.06;68.35
48862;BME280;34681;49.188;-0.374;2023-03-03T09:05:48;102358.38;;;7.13;68.84
48862;BME280;34681;49.188;-0.374;2023-03-03T09:08:14;102355.22;;;7.21;67.92
48862;BME280;34681;49.188;-0.374;2023-03-03T09:10:39;102352.31;;;7.24;67.51
48862;BME280;34681;49.188;-0.374;2023-03-03T09:13:16;102357.56;;;7.27;68.27
48862;BME280;34681;49.188;-0.374;2023-03-03T09:15:43;102353.81;;;7.29;66.95
48862;BME280;34681;49.188;-0.374;2023-03-03T09:20:39;102363.03;;;7.43;66.36
48862;BME280;34681;49.188;-0.374;2023-03-03T09:26:26;102361.09;;;7.76;64.63
48862;BME280;34681;49.188;-0.374;2023-03-03T09:31:39;102368.63;;;8.03;63.33
48862;BME280;34681;49.188;-0.374;2023-03-03T09:37:20;102373.53;;;8.12;63.77
48862;BME280;34681;49.188;-0.374;2023-03-03T09:39:52;102357.50;;;8.22;62.95
48862;BME280;34681;49.188;-0.374;2023-03-03T09:55:26;102392.31;;;7.86;62.18
48862;BME280;34681;49.188;-0.374;2023-03-03T10:00:44;102387.31;;;7.79;61.69
48862;BME280;34681;49.188;-0.374;2023-03-03T10:11:31;102381.31;;;7.72;63.13
48862;BME280;34681;49.188;-0.374;2023-03-03T10:14:46;102385.50;;;7.94;63.19
48862;BME280;34681;49.188;-0.374;2023-03-03T10:19:58;102405.50;;;7.78;61.99
48862;BME280;34681;49.188;-0.374;2023-03-03T10:22:54;102409.53;;;7.87;62.18
48862;BME280;34681;49.188;-0.374;2023-03-03T10:25:39;102395.91;;;7.87;62.67
48862;BME280;34681;49.188;-0.374;2023-03-03T10:28:25;102397.75;;;7.86;63.47
48862;BME280;34681;49.188;-0.374;2023-03-03T10:33:58;102398.22;;;8.25;62.71
48862;BME280;34681;49.188;-0.374;2023-03-03T10:39:31;102406.06;;;8.15;62.58
48862;BME280;34681;49.188;-0.374;2023-03-03T10:47:48;102399.50;;;8.33;62.24
48862;BME280;34681;49.188;-0.374;2023-03-03T10:53:26;102401.50;;;8.15;61.16
48862;BME280;34681;49.188;-0.374;2023-03-03T10:59:09;102418.53;;;8.19;60.60
48862;BME280;34681;49.188;-0.374;2023-03-03T11:02:53;102407.09;;;8.28;60.55
48862;BME280;34681;49.188;-0.374;2023-03-03T11:07:47;102405.31;;;8.43;60.59
48862;BME280;34681;49.188;-0.374;2023-03-03T11:18:09;102407.78;;;8.48;58.72
48862;BME280;34681;49.188;-0.374;2023-03-03T11:21:00;102412.66;;;8.57;58.43
48862;BME280;34681;49.188;-0.374;2023-03-03T11:23:49;102417.63;;;8.50;58.01
48862;BME280;34681;49.188;-0.374;2023-03-03T11:34:49;102410.13;;;8.54;56.13
48862;BME280;34681;49.188;-0.374;2023-03-03T11:39:52;102394.78;;;8.37;56.19
48862;BME280;34681;49.188;-0.374;2023-03-03T11:42:27;102410.91;;;8.56;56.46
48862;BME280;34681;49.188;-0.374;2023-03-03T11:45:01;102392.50;;;8.59;56.54
48862;BME280;34681;49.188;-0.374;2023-03-03T11:47:33;102395.63;;;8.67;56.89
48862;BME280;34681;49.188;-0.374;2023-03-03T11:50:21;102389.22;;;8.83;56.19
48862;BME280;34681;49.188;-0.374;2023-03-03T11:53:20;102401.16;;;8.96;56.25
48862;BME280;34681;49.188;-0.374;2023-03-03T11:55:53;102393.06;;;8.94;56.40
48862;BME280;34681;49.188;-0.374;2023-03-03T12:01:21;102407.38;;;8.98;56.14
48862;BME280;34681;49.188;-0.374;2023-03-03T12:04:08;102405.97;;;8.77;56.31
48862;BME280;34681;49.188;-0.374;2023-03-03T12:06:52;102393.25;;;8.77;57.64
48862;BME280;34681;49.188;-0.374;2023-03-03T12:09:57;102391.44;;;8.76;57.26
48862;BME280;34681;49.188;-0.374;2023-03-03T12:12:34;102385.53;;;8.98;56.85
48862;BME280;34681;49.188;-0.374;2023-03-03T12:15:14;102394.34;;;9.03;57.03
48862;BME280;34681;49.188;-0.374;2023-03-03T12:18:03;102387.84;;;8.76;58.15
48862;BME280;34681;49.188;-0.374;2023-03-03T12:26:09;102384.66;;;8.69;58.40
48862;BME280;34681;49.188;-0.374;2023-03-03T12:28:52;102372.81;;;8.68;58.10
48862;BME280;34681;49.188;-0.374;2023-03-03T12:42:24;102362.63;;;9.00;57.12
48862;BME280;34681;49.188;-0.374;2023-03-03T12:56:55;102356.19;;;9.30;58.98
48862;BME280;34681;49.188;-0.374;2023-03-03T12:59:48;102380.44;;;9.35;58.85
48862;BME280;34681;49.188;-0.374;2023-03-03T13:02:52;102372.28;;;9.06;59.50
48862;BME280;34681;49.188;-0.374;2023-03-03T13:16:42;102357.53;;;9.09;59.76
48862;BME280;34681;49.188;-0.374;2023-03-03T13:19:26;102349.13;;;9.26;59.05
48862;BME280;34681;49.188;-0.374;2023-03-03T13:21:59;102356.19;;;9.16;58.71
48862;BME280;34681;49.188;-0.374;2023-03-03T13:24:32;102358.81;;;9.17;58.50
48862;BME280;34681;49.188;-0.374;2023-03-03T13:27:05;102356.84;;;9.34;58.13
48862;BME280;34681;49.188;-0.374;2023-03-03T13:32:11;102355.31;;;9.29;58.39
48862;BME280;34681;49.188;-0.374;2023-03-03T13:37:52;102353.94;;;9.37;59.99
48862;BME280;34681;49.188;-0.374;2023-03-03T13:40:37;102352.19;;;9.21;59.85
48862;BME280;34681;49.188;-0.374;2023-03-03T13:43:18;102345.19;;;9.03;60.51
48862;BME280;34681;49.188;-0.374;2023-03-03T14:02:37;102346.25;;;9.15;60.11
48862;BME280;34681;49.188;-0.374;2023-03-03T14:07:45;102343.13;;;9.21;59.41
48862;BME280;34681;49.188;-0.374;2023-03-03T14:10:17;102362.03;;;9.10;58.73
48862;BME280;34681;49.188;-0.374;2023-03-03T14:13:06;102338.16;;;8.99;58.97
48862;BME280;34681;49.188;-0.374;2023-03-03T14:21:11;102336.78;;;9.06;58.35
48862;BME280;34681;49.188;-0.374;2023-03-03T14:23:45;102336.56;;;9.23;58.10
48862;BME280;34681;49.188;-0.374;2023-03-03T14:26:12;102347.00;;;9.17;58.47
48862;BME280;34681;49.188;-0.374;2023-03-03T14:28:50;102337.16;;;9.14;58.77
48862;BME280;34681;49.188;-0.374;2023-03-03T14:31:27;102333.34;;;9.17;59.99
48862;BME280;34681;49.188;-0.374;2023-03-03T14:34:01;102338.19;;;9.40;59.60
48862;BME280;34681;49.188;-0.374;2023-03-03T14:36:30;102332.47;;;9.31;59.59
48862;BME280;34681;49.188;-0.374;2023-03-03T14:38:56;102364.59;;;9.27;59.24
48862;BME280;34681;49.188;-0.374;2023-03-03T14:41:34;102336.00;;;9.04;59.79
48862;BME280;34681;49.188;-0.374;2023-03-03T14:44:28;102333.56;;;8.99;60.33
48862;BME280;34681;49.188;-0.374;2023-03-03T14:49:34;102347.59;;;9.22;60.01
48862;BME280;34681;49.188;-0.374;2023-03-03T14:54:42;102317.38;;;9.11;60.70
48862;BME280;34681;49.188;-0.374;2023-03-03T15:02:43;102320.59;;;8.89;60.79
48862;BME280;34681;49.188;-0.374;2023-03-03T15:05:19;102296.81;;;8.77;60.23
48862;BME280;34681;49.188;-0.374;2023-03-03T15:07:48;102315.13;;;8.75;60.23
48862;BME280;34681;49.188;-0.374;2023-03-03T15:10:35;102317.47;;;8.66;59.88
48862;BME280;34681;49.188;-0.374;2023-03-03T15:18:17;102319.34;;;8.80;61.69
48862;BME280;34681;49.188;-0.374;2023-03-03T15:21:17;102317.47;;;8.81;60.75
48862;BME280;34681;49.188;-0.374;2023-03-03T15:28:55;102318.34;;;8.53;61.62
48862;BME280;34681;49.188;-0.374;2023-03-03T15:34:29;102319.81;;;8.44;63.87
48862;BME280;34681;49.188;-0.374;2023-03-03T15:42:41;102326.13;;;8.44;63.86
48862;BME280;34681;49.188;-0.374;2023-03-03T15:45:40;102325.56;;;8.54;63.99
48862;BME280;34681;49.188;-0.374;2023-03-03T15:48:11;102316.03;;;8.61;63.70
48862;BME280;34681;49.188;-0.374;2023-03-03T15:50:44;102329.53;;;8.48;63.77
48862;BME280;34681;49.188;-0.374;2023-03-03T15:56:23;102316.88;;;8.47;64.65
48862;BME280;34681;49.188;-0.374;2023-03-03T15:59:43;102328.75;;;8.46;64.99
48862;BME280;34681;49.188;-0.374;2023-03-03T16:02:23;102318.53;;;8.50;66.52
48862;BME280;34681;49.188;-0.374;2023-03-03T16:17:58;102344.09;;;8.03;69.13
48862;BME280;34681;49.188;-0.374;2023-03-03T16:26:17;102335.25;;;7.83;69.82
48862;BME280;34681;49.188;-0.374;2023-03-03T16:35:18;102348.75;;;8.01;69.50
48862;BME280;34681;49.188;-0.374;2023-03-03T16:38:04;102341.31;;;7.88;70.01
48862;BME280;34681;49.188;-0.374;2023-03-03T16:40:33;102362.50;;;7.68;70.52
48862;BME280;34681;49.188;-0.374;2023-03-03T16:43:09;102349.41;;;7.74;70.71
48862;BME280;34681;49.188;-0.374;2023-03-03T16:45:37;102344.59;;;7.64;71.25
48862;BME280;34681;49.188;-0.374;2023-03-03T16:53:56;102359.28;;;7.45;71.94
48862;BME280;34681;49.188;-0.374;2023-03-03T17:04:58;102353.22;;;7.56;72.00
48862;BME280;34681;49.188;-0.374;2023-03-03T17:08:07;102347.56;;;7.43;72.30
48862;BME280;34681;49.188;-0.374;2023-03-03T17:10:44;102363.56;;;7.33;72.86
48862;BME280;34681;49.188;-0.374;2023-03-03T17:18:57;102371.56;;;7.21;74.17
48862;BME280;34681;49.188;-0.374;2023-03-03T17:24:38;102392.81;;;7.30;74.28
48862;BME280;34681;49.188;-0.374;2023-03-03T17:27:30;102384.28;;;7.20;74.15